Itajai, Brazil
Current Conditions -  °F | °C
As of 4:00 PM on Friday 24 Oct 2014 (Local Time) from SBNF Reporting Station
Few Clouds Few Clouds  
Wind Chill: 77°   Ceiling: Unl
Heat Index: 79°   Visibility: 6mi
Dew Point: 64°   Wind: 15mph
Humidity: 65%   Direction: 60°ENE
Pressure: 29.91"   Gusts: NA
Location:  26.9°S, 48.68°W
Report Text: SBNF 241800Z 06013KT 9999 FEW025 25/18 Q1013
Loading
Personal Weather Stations






























Interactive Weather Map New forecast layout! Learn more

10-Day Weather Forecast

Advertisements
Track Severe Weather on mobile